Time;durP1;ratioP1;P1;durP2;ratioP2;P2;SDS_P1;SDS_P2;PMS_P1;PMS_P2;Temp;Humidity;BMP_temperature;BMP_pressure;BME280_temperature;BME280_humidity;BME280_pressure;Samples;Min_cycle;Max_cycle;Signal;HPM_P1;HPM_P2
2022/05/06 00:00:10;;;;;;;4.73;4.40;;;;;;;;;;5027685;28;20518;-55
2022/05/06 00:02:36;;;;;;;6.07;4.83;;;;;;;;;;5025040;28;20186;-54
2022/05/06 00:05:02;;;;;;;5.27;4.77;;;;;;;;;;5025844;28;20177;-54
2022/05/06 00:07:29;;;;;;;5.33;4.83;;;;;;;;;;5025310;28;20190;-55
2022/05/06 00:09:55;;;;;;;5.60;5.20;;;;;;;;;;5026240;28;20209;-53
2022/05/06 00:12:21;;;;;;;5.33;4.93;;;;;;;;;;5006418;28;20591;-55
2022/05/06 00:14:47;;;;;;;5.43;5.03;;;;;;;;;;5027006;28;20192;-54
2022/05/06 00:17:13;;;;;;;4.93;4.53;;;;;;;;;;5026558;28;20648;-55
2022/05/06 00:19:40;;;;;;;4.93;4.50;;;;;;;;;;5025873;28;20188;-55
2022/05/06 00:22:12;;;;;;;4.90;4.50;;;;;;;;;;5025263;28;20182;-55
2022/05/06 00:24:38;;;;;;;5.20;4.70;;;;;;;;;;5029287;28;20209;-52
2022/05/06 00:27:15;;;;;;;4.63;4.33;;;;;;;;;;5029763;28;20185;-52
2022/05/06 00:29:53;;;;;;;5.30;4.90;;;;;;;;;;5029536;28;20188;-55
2022/05/06 00:32:19;;;;;;;5.13;4.73;;;;;;;;;;5009329;28;20735;-55
2022/05/06 00:34:45;;;;;;;5.20;4.80;;;;;;;;;;5001012;28;20215;-53
2022/05/06 00:37:12;;;;;;;5.17;4.77;;;;;;;;;;5001400;28;20638;-53
2022/05/06 00:39:38;;;;;;;4.90;4.50;;;;;;;;;;5007622;28;20221;-53
2022/05/06 00:42:04;;;;;;;4.47;4.17;;;;;;;;;;5007766;28;20214;-52
2022/05/06 00:44:30;;;;;;;4.90;4.60;;;;;;;;;;5008108;28;20725;-55
2022/05/06 00:47:02;;;;;;;5.53;5.13;;;;;;;;;;5008383;28;20375;-55
2022/05/06 00:49:28;;;;;;;4.90;4.50;;;;;;;;;;4988846;28;20183;-55
2022/05/06 00:51:54;;;;;;;5.77;5.07;;;;;;;;;;5007870;28;20210;-55
2022/05/06 00:54:24;;;;;;;5.13;4.73;;;;;;;;;;5007741;28;20192;-55
2022/05/06 00:56:52;;;;;;;5.80;5.20;;;;;;;;;;5008881;28;20179;-55
2022/05/06 00:59:18;;;;;;;5.60;4.70;;;;;;;;;;4990848;28;20546;-55
2022/05/06 01:01:45;;;;;;;5.43;4.93;;;;;;;;;;4989487;28;20575;-56
2022/05/06 01:04:17;;;;;;;4.70;4.30;;;;;;;;;;4989343;28;20199;-53
2022/05/06 01:06:44;;;;;;;4.77;4.37;;;;;;;;;;4991084;28;20187;-55
2022/05/06 01:09:15;;;;;;;4.33;4.03;;;;;;;;;;5009025;28;20191;-55
2022/05/06 01:11:42;;;;;;;5.53;5.03;;;;;;;;;;5005631;28;20213;-54
2022/05/06 01:14:11;;;;;;;4.80;4.40;;;;;;;;;;5008826;28;20535;-54
2022/05/06 01:16:41;;;;;;;5.33;4.93;;;;;;;;;;4989574;28;20588;-54
2022/05/06 01:19:09;;;;;;;5.10;4.67;;;;;;;;;;4988951;28;20185;-55
2022/05/06 01:21:37;;;;;;;4.70;4.30;;;;;;;;;;4990105;28;20223;-54
2022/05/06 01:24:06;;;;;;;5.37;4.87;;;;;;;;;;5007796;28;20642;-54
2022/05/06 01:26:59;;;;;;;4.73;4.33;;;;;;;;;;4990721;28;20674;-54
2022/05/06 01:29:29;;;;;;;4.80;4.40;;;;;;;;;;4978644;28;20928;-54
2022/05/06 01:31:56;;;;;;;5.33;4.67;;;;;;;;;;4988834;28;20218;-53
2022/05/06 01:34:24;;;;;;;4.43;4.03;;;;;;;;;;5013034;28;20210;-54
2022/05/06 01:37:13;;;;;;;4.90;4.50;;;;;;;;;;5028132;28;20657;-54
2022/05/06 01:39:48;;;;;;;4.57;4.17;;;;;;;;;;5028651;28;20170;-55
2022/05/06 01:42:18;;;;;;;4.53;4.13;;;;;;;;;;5021825;28;20662;-54
2022/05/06 01:44:45;;;;;;;4.97;4.57;;;;;;;;;;5028404;28;20262;-54
2022/05/06 01:47:19;;;;;;;5.07;4.67;;;;;;;;;;5028072;28;20588;-57
2022/05/06 01:49:51;;;;;;;4.80;4.40;;;;;;;;;;5028264;28;20641;-54
2022/05/06 01:52:17;;;;;;;6.03;4.57;;;;;;;;;;5022640;28;20226;-54
2022/05/06 01:54:44;;;;;;;5.07;4.67;;;;;;;;;;5029120;28;20196;-54
2022/05/06 01:57:14;;;;;;;5.33;4.87;;;;;;;;;;5007569;28;20520;-54
2022/05/06 01:59:40;;;;;;;4.83;4.43;;;;;;;;;;5028440;28;20182;-54
2022/05/06 02:02:09;;;;;;;5.17;4.77;;;;;;;;;;5025346;28;20190;-54
2022/05/06 02:07:21;;;;;;;5.63;4.47;;;;;;;;;;5026214;28;20597;-54
2022/05/06 02:09:47;;;;;;;4.73;4.33;;;;;;;;;;5028655;28;20185;-54
2022/05/06 02:12:14;;;;;;;4.93;4.53;;;;;;;;;;5025355;28;20214;-55
2022/05/06 02:14:40;;;;;;;4.93;4.53;;;;;;;;;;5009698;28;20235;-54
2022/05/06 02:17:07;;;;;;;4.70;4.30;;;;;;;;;;5007524;28;20193;-54
2022/05/06 02:19:33;;;;;;;4.73;4.43;;;;;;;;;;5024868;28;20181;-54
2022/05/06 02:21:59;;;;;;;5.10;4.60;;;;;;;;;;5006702;28;20186;-53
2022/05/06 02:24:25;;;;;;;4.83;4.50;;;;;;;;;;5026382;28;20189;-54
2022/05/06 02:26:51;;;;;;;4.57;4.27;;;;;;;;;;4991381;28;20222;-54
2022/05/06 02:29:18;;;;;;;4.97;4.50;;;;;;;;;;5025817;28;20273;-54
2022/05/06 02:34:28;;;;;;;5.27;4.87;;;;;;;;;;5024041;28;20279;-53
2022/05/06 02:36:55;;;;;;;6.00;4.77;;;;;;;;;;5023613;28;20580;-54
2022/05/06 02:39:21;;;;;;;5.50;5.10;;;;;;;;;;5027094;28;20186;-54
2022/05/06 02:41:47;;;;;;;5.03;4.63;;;;;;;;;;5024789;28;20206;-54
2022/05/06 02:44:15;;;;;;;5.20;4.80;;;;;;;;;;5025583;28;20197;-54
2022/05/06 02:46:41;;;;;;;5.20;4.70;;;;;;;;;;5026457;28;20704;-54
2022/05/06 02:49:07;;;;;;;4.80;4.40;;;;;;;;;;5024746;28;20190;-53
2022/05/06 02:51:34;;;;;;;5.03;4.60;;;;;;;;;;5025827;28;20218;-54
2022/05/06 02:54:00;;;;;;;5.97;5.50;;;;;;;;;;5025078;28;20209;-54
2022/05/06 02:56:26;;;;;;;5.10;4.70;;;;;;;;;;5008644;28;20177;-54
2022/05/06 02:58:53;;;;;;;5.00;4.60;;;;;;;;;;5005855;28;20189;-54
2022/05/06 03:01:20;;;;;;;11.10;10.50;;;;;;;;;;5026419;28;20581;-54
2022/05/06 03:03:46;;;;;;;5.15;4.75;;;;;;;;;;5004916;28;20565;-54
2022/05/06 03:06:12;;;;;;;5.33;4.83;;;;;;;;;;5027609;28;20625;-53
2022/05/06 03:08:41;;;;;;;4.20;3.90;;;;;;;;;;5025431;28;20234;-54
2022/05/06 03:11:08;;;;;;;4.80;4.40;;;;;;;;;;5007754;28;20229;-54
2022/05/06 03:13:34;;;;;;;5.27;4.87;;;;;;;;;;5007280;28;20228;-53
2022/05/06 03:16:00;;;;;;;4.90;4.50;;;;;;;;;;5026888;28;20223;-54
2022/05/06 03:18:29;;;;;;;5.80;5.40;;;;;;;;;;5024769;28;20740;-53
2022/05/06 03:20:56;;;;;;;4.47;4.17;;;;;;;;;;5007694;28;20193;-54
2022/05/06 03:23:22;;;;;;;4.77;4.37;;;;;;;;;;5024842;28;20548;-54
2022/05/06 03:25:48;;;;;;;4.40;4.10;;;;;;;;;;5026412;28;20271;-55
2022/05/06 03:28:14;;;;;;;4.67;4.27;;;;;;;;;;5006775;28;20189;-54
2022/05/06 03:30:47;;;;;;;4.73;4.33;;;;;;;;;;5009263;28;20280;-54
2022/05/06 03:33:14;;;;;;;6.60;6.10;;;;;;;;;;5020213;28;20537;-53
2022/05/06 03:35:40;;;;;;;4.10;3.80;;;;;;;;;;5005056;28;20307;-54
2022/05/06 03:38:07;;;;;;;6.60;6.20;;;;;;;;;;5036515;28;20272;-54
2022/05/06 03:40:33;;;;;;;5.20;4.70;;;;;;;;;;5008339;28;20491;-53
2022/05/06 03:43:00;;;;;;;4.70;4.40;;;;;;;;;;5027952;28;20677;-53
2022/05/06 03:45:26;;;;;;;4.77;4.37;;;;;;;;;;5026436;28;20272;-53
2022/05/06 03:47:54;;;;;;;4.80;4.40;;;;;;;;;;5025416;28;20189;-54
2022/05/06 03:53:06;;;;;;;5.00;4.60;;;;;;;;;;5028209;28;20212;-54
2022/05/06 03:55:33;;;;;;;5.17;4.77;;;;;;;;;;5009397;28;20173;-54
2022/05/06 03:57:59;;;;;;;5.37;5.00;;;;;;;;;;5024319;28;20212;-54
2022/05/06 04:00:26;;;;;;;4.93;4.53;;;;;;;;;;5029480;28;21566;-54
2022/05/06 04:02:53;;;;;;;5.10;4.60;;;;;;;;;;5011454;28;20601;-54
2022/05/06 04:05:19;;;;;;;10.03;9.50;;;;;;;;;;5012634;28;20169;-54
2022/05/06 04:07:45;;;;;;;4.70;4.30;;;;;;;;;;5030952;28;20180;-54
2022/05/06 04:10:11;;;;;;;4.57;4.17;;;;;;;;;;5013169;28;20235;-54
2022/05/06 04:12:39;;;;;;;4.63;4.23;;;;;;;;;;5030450;28;20170;-54
2022/05/06 04:15:06;;;;;;;4.90;4.50;;;;;;;;;;5036585;28;20170;-54
2022/05/06 04:17:32;;;;;;;4.10;3.70;;;;;;;;;;5028882;28;20185;-54
2022/05/06 04:25:28;;;;;;;4.47;4.07;;;;;;;;;;5031168;28;20533;-54
2022/05/06 04:27:54;;;;;;;5.30;4.90;;;;;;;;;;5012008;28;20170;-54
2022/05/06 04:30:23;;;;;;;4.17;3.87;;;;;;;;;;5029881;28;20259;-54
2022/05/06 04:32:49;;;;;;;4.07;3.77;;;;;;;;;;5029140;28;20267;-54
2022/05/06 04:35:16;;;;;;;5.40;4.60;;;;;;;;;;5010020;28;20214;-54
2022/05/06 04:37:43;;;;;;;4.13;3.83;;;;;;;;;;5030030;28;20168;-54
2022/05/06 04:40:10;;;;;;;5.13;4.73;;;;;;;;;;5011947;28;20186;-54
2022/05/06 04:42:36;;;;;;;4.30;4.00;;;;;;;;;;5030591;28;20656;-54
2022/05/06 04:45:02;;;;;;;4.37;3.97;;;;;;;;;;5028466;28;20178;-54
2022/05/06 04:47:31;;;;;;;4.33;3.97;;;;;;;;;;5010305;28;20184;-54
2022/05/06 04:49:57;;;;;;;4.20;3.90;;;;;;;;;;5025156;28;20304;-54
2022/05/06 04:52:23;;;;;;;4.17;3.87;;;;;;;;;;5025725;28;20217;-54
2022/05/06 04:54:49;;;;;;;4.40;4.00;;;;;;;;;;5026340;28;20188;-54
2022/05/06 04:57:16;;;;;;;5.63;5.13;;;;;;;;;;5006369;28;20201;-54
2022/05/06 04:59:47;;;;;;;4.10;3.80;;;;;;;;;;5022990;28;20217;-54
2022/05/06 05:02:14;;;;;;;8.47;7.87;;;;;;;;;;5029678;28;20217;-53
2022/05/06 05:04:40;;;;;;;4.47;3.90;;;;;;;;;;5010801;28;20232;-54
2022/05/06 05:07:07;;;;;;;4.60;4.20;;;;;;;;;;5030091;28;20166;-54
2022/05/06 05:09:33;;;;;;;4.60;4.20;;;;;;;;;;5007330;28;20563;-54
2022/05/06 05:11:59;;;;;;;4.47;4.10;;;;;;;;;;5028519;28;20213;-54
2022/05/06 05:14:26;;;;;;;5.27;4.27;;;;;;;;;;5008686;28;20273;-54
2022/05/06 05:16:52;;;;;;;4.73;4.33;;;;;;;;;;5012168;28;20181;-54
2022/05/06 05:19:18;;;;;;;4.60;4.20;;;;;;;;;;5010146;28;20315;-54
2022/05/06 05:21:44;;;;;;;4.47;4.07;;;;;;;;;;5008052;28;20182;-54
2022/05/06 05:24:10;;;;;;;4.87;4.47;;;;;;;;;;5020469;28;20185;-53
2022/05/06 05:26:36;;;;;;;4.07;3.77;;;;;;;;;;5017908;28;20629;-54
2022/05/06 05:29:04;;;;;;;5.27;4.77;;;;;;;;;;5029364;28;20177;-54
2022/05/06 05:31:30;;;;;;;4.63;4.23;;;;;;;;;;5003586;28;20213;-54
2022/05/06 05:33:57;;;;;;;5.27;4.43;;;;;;;;;;5024606;28;20693;-54
2022/05/06 05:36:23;;;;;;;5.07;4.53;;;;;;;;;;5011608;28;20632;-54
2022/05/06 05:38:49;;;;;;;4.40;4.00;;;;;;;;;;5032551;28;20182;-54
2022/05/06 05:41:15;;;;;;;4.30;3.90;;;;;;;;;;5029775;28;20169;-54
2022/05/06 05:49:11;;;;;;;4.57;4.17;;;;;;;;;;5031821;28;20212;-54
2022/05/06 05:51:37;;;;;;;4.07;3.77;;;;;;;;;;5029176;28;20238;-54
2022/05/06 05:54:04;;;;;;;5.53;5.03;;;;;;;;;;5028325;28;20189;-54
2022/05/06 05:56:30;;;;;;;4.87;4.47;;;;;;;;;;5029252;28;20929;-53
2022/05/06 05:58:56;;;;;;;5.50;4.73;;;;;;;;;;5029089;28;20192;-53
2022/05/06 06:01:22;;;;;;;5.30;4.03;;;;;;;;;;5011564;28;20190;-54
2022/05/06 06:03:48;;;;;;;5.27;4.77;;;;;;;;;;5027155;28;20600;-54
2022/05/06 06:06:15;;;;;;;5.37;4.87;;;;;;;;;;5027275;28;20197;-54
2022/05/06 06:08:41;;;;;;;6.27;5.70;;;;;;;;;;5028351;28;20196;-54
2022/05/06 06:11:07;;;;;;;5.47;4.97;;;;;;;;;;5010790;28;20284;-54
2022/05/06 06:13:33;;;;;;;6.43;5.50;;;;;;;;;;5028395;28;20628;-54
2022/05/06 06:15:59;;;;;;;6.00;5.40;;;;;;;;;;5011899;28;20177;-54
2022/05/06 06:18:28;;;;;;;5.30;4.77;;;;;;;;;;5009835;28;20185;-54
2022/05/06 06:20:58;;;;;;;6.60;5.73;;;;;;;;;;5011473;28;20216;-54
2022/05/06 06:23:24;;;;;;;5.93;5.43;;;;;;;;;;5027529;28;20273;-54
2022/05/06 06:25:52;;;;;;;6.30;5.37;;;;;;;;;;5027973;28;20183;-54
2022/05/06 06:28:21;;;;;;;6.27;5.77;;;;;;;;;;5027904;28;20529;-54
2022/05/06 06:30:47;;;;;;;5.83;5.27;;;;;;;;;;5011004;28;20193;-54
2022/05/06 06:33:14;;;;;;;6.17;5.57;;;;;;;;;;5007970;28;20718;-54
2022/05/06 06:35:40;;;;;;;7.30;6.20;;;;;;;;;;5023347;28;20217;-54
2022/05/06 06:38:06;;;;;;;6.90;6.20;;;;;;;;;;4992896;28;20709;-54
2022/05/06 06:40:32;;;;;;;6.90;6.20;;;;;;;;;;5013101;28;20174;-54
2022/05/06 06:43:02;;;;;;;6.07;5.47;;;;;;;;;;5002939;28;20175;-54
2022/05/06 06:45:29;;;;;;;7.60;6.07;;;;;;;;;;5007603;28;20186;-54
2022/05/06 06:47:58;;;;;;;7.80;6.00;;;;;;;;;;5008205;28;20174;-54
2022/05/06 06:50:25;;;;;;;9.10;6.97;;;;;;;;;;5008049;28;20556;-54
2022/05/06 06:52:52;;;;;;;6.77;6.07;;;;;;;;;;4991340;28;20965;-54
2022/05/06 06:55:18;;;;;;;9.33;7.20;;;;;;;;;;4998687;28;20174;-54
2022/05/06 06:57:44;;;;;;;8.07;7.00;;;;;;;;;;5007278;28;20645;-54
2022/05/06 07:00:11;;;;;;;7.77;7.00;;;;;;;;;;5011309;28;20175;-54
2022/05/06 07:02:38;;;;;;;8.20;6.70;;;;;;;;;;5001641;28;20187;-54
2022/05/06 07:05:05;;;;;;;8.33;7.37;;;;;;;;;;5023932;28;20185;-54
2022/05/06 07:13:01;;;;;;;8.67;7.27;;;;;;;;;;5003279;28;20268;-53
2022/05/06 07:15:29;;;;;;;9.37;7.90;;;;;;;;;;5011475;28;20190;-54
2022/05/06 07:17:56;;;;;;;15.10;8.87;;;;;;;;;;4998222;28;20178;-54
2022/05/06 07:20:22;;;;;;;9.80;7.97;;;;;;;;;;5008530;28;20189;-53
2022/05/06 07:22:48;;;;;;;8.13;7.30;;;;;;;;;;5000959;28;20550;-54
2022/05/06 07:25:15;;;;;;;8.47;7.57;;;;;;;;;;4997370;28;20183;-54
2022/05/06 07:27:46;;;;;;;10.23;8.50;;;;;;;;;;5006435;28;20182;-54
2022/05/06 07:30:16;;;;;;;9.67;8.60;;;;;;;;;;4995645;28;20226;-54
2022/05/06 07:32:42;;;;;;;9.23;8.33;;;;;;;;;;4993684;28;20554;-54
2022/05/06 07:35:09;;;;;;;11.30;8.93;;;;;;;;;;4999641;28;20257;-54
2022/05/06 07:37:35;;;;;;;9.87;8.87;;;;;;;;;;5025921;28;20612;-53
2022/05/06 07:40:02;;;;;;;9.33;8.20;;;;;;;;;;4999877;28;20539;-54
2022/05/06 07:42:30;;;;;;;10.20;9.20;;;;;;;;;;4983636;28;20232;-54
2022/05/06 07:44:57;;;;;;;9.80;8.80;;;;;;;;;;4996939;28;20208;-54
2022/05/06 07:47:23;;;;;;;12.70;8.83;;;;;;;;;;5000865;28;20221;-54
2022/05/06 07:49:49;;;;;;;9.43;8.20;;;;;;;;;;4991115;28;20297;-53
2022/05/06 07:52:15;;;;;;;10.97;9.70;;;;;;;;;;5018864;28;20833;-55
2022/05/06 07:54:41;;;;;;;12.23;10.00;;;;;;;;;;5002371;28;20182;-53
2022/05/06 07:57:08;;;;;;;12.73;10.60;;;;;;;;;;4994064;28;20683;-54
2022/05/06 07:59:34;;;;;;;17.33;11.27;;;;;;;;;;5006251;28;20182;-53
2022/05/06 08:04:48;;;;;;;14.77;11.73;;;;;;;;;;4997605;28;20177;-54
2022/05/06 08:07:16;;;;;;;13.20;11.80;;;;;;;;;;4987918;28;20186;-54
2022/05/06 08:09:42;;;;;;;15.67;12.37;;;;;;;;;;4988994;28;20245;-53
2022/05/06 08:12:09;;;;;;;14.50;11.27;;;;;;;;;;4985926;28;20540;-54
2022/05/06 08:14:35;;;;;;;16.87;12.63;;;;;;;;;;4996620;28;20174;-53
2022/05/06 08:17:02;;;;;;;13.97;11.67;;;;;;;;;;4986555;28;20598;-53
2022/05/06 08:19:28;;;;;;;12.17;10.83;;;;;;;;;;4994102;28;20567;-53
2022/05/06 08:21:55;;;;;;;13.13;11.40;;;;;;;;;;5011776;28;20178;-52
2022/05/06 08:24:22;;;;;;;12.97;11.60;;;;;;;;;;4994255;28;20194;-52
2022/05/06 08:26:48;;;;;;;15.30;11.77;;;;;;;;;;5006414;28;20195;-53
2022/05/06 08:29:14;;;;;;;13.97;12.20;;;;;;;;;;4959463;28;20200;-52
2022/05/06 08:31:41;;;;;;;13.50;12.20;;;;;;;;;;5006791;28;20572;-52
2022/05/06 08:34:08;;;;;;;14.10;12.53;;;;;;;;;;5009029;28;20218;-53
2022/05/06 08:36:35;;;;;;;14.97;12.40;;;;;;;;;;5021270;28;20188;-53
2022/05/06 08:39:02;;;;;;;14.77;13.00;;;;;;;;;;5018734;28;20208;-52
2022/05/06 08:41:29;;;;;;;19.57;12.40;;;;;;;;;;5018431;28;20174;-52
2022/05/06 08:43:56;;;;;;;14.87;13.07;;;;;;;;;;5026334;28;20209;-52
2022/05/06 08:51:55;;;;;;;14.37;12.77;;;;;;;;;;5021203;28;20205;-53
2022/05/06 08:54:22;;;;;;;16.30;13.97;;;;;;;;;;5011738;28;20213;-53
2022/05/06 08:56:49;;;;;;;13.73;12.10;;;;;;;;;;5028683;28;20217;-53
2022/05/06 08:59:15;;;;;;;16.93;13.80;;;;;;;;;;5027329;28;20259;-53
2022/05/06 09:01:41;;;;;;;15.50;13.83;;;;;;;;;;5030474;28;20175;-53
2022/05/06 09:04:08;;;;;;;18.67;14.10;;;;;;;;;;5026186;28;20213;-53
2022/05/06 09:06:34;;;;;;;17.50;15.20;;;;;;;;;;5026734;28;20263;-53
2022/05/06 09:09:01;;;;;;;15.60;13.93;;;;;;;;;;5028521;28;20313;-54
2022/05/06 09:14:15;;;;;;;15.97;14.17;;;;;;;;;;5029509;28;20539;-52
2022/05/06 09:16:41;;;;;;;14.90;13.30;;;;;;;;;;5026787;28;20260;-52
2022/05/06 09:19:09;;;;;;;18.50;13.87;;;;;;;;;;5026780;28;20232;-52
2022/05/06 09:21:36;;;;;;;43.23;17.00;;;;;;;;;;5029171;28;20841;-54
2022/05/06 09:24:35;;;;;;;33.67;14.30;;;;;;;;;;4990285;28;20355;-53
2022/05/06 09:27:01;;;;;;;59.97;16.40;;;;;;;;;;4954928;28;20221;-53
2022/05/06 09:29:37;;;;;;;40.77;16.40;;;;;;;;;;5010522;28;20278;-53
2022/05/06 09:32:22;;;;;;;221.80;35.53;;;;;;;;;;5028140;28;20209;-53
2022/05/06 09:34:50;;;;;;;247.97;36.17;;;;;;;;;;5026147;28;20661;-53
2022/05/06 09:37:33;;;;;;;247.77;36.37;;;;;;;;;;5025537;28;20605;-54
2022/05/06 09:40:03;;;;;;;121.40;25.53;;;;;;;;;;5027032;28;20526;-53
2022/05/06 09:42:29;;;;;;;116.40;26.63;;;;;;;;;;5021073;28;20174;-54
2022/05/06 09:44:55;;;;;;;106.70;24.97;;;;;;;;;;5027630;28;20225;-54
2022/05/06 09:47:21;;;;;;;94.90;20.40;;;;;;;;;;5008925;28;20198;-53
2022/05/06 09:49:49;;;;;;;40.07;17.23;;;;;;;;;;5009652;28;20248;-50
2022/05/06 09:52:16;;;;;;;63.67;20.20;;;;;;;;;;5008543;28;20571;-52
2022/05/06 09:54:43;;;;;;;44.97;18.60;;;;;;;;;;5023459;28;20175;-52
2022/05/06 09:57:13;;;;;;;32.17;16.93;;;;;;;;;;5008732;28;20297;-51
2022/05/06 09:59:40;;;;;;;24.50;14.67;;;;;;;;;;5009532;28;20225;-51
2022/05/06 10:02:07;;;;;;;24.53;16.13;;;;;;;;;;5011358;28;20172;-51
2022/05/06 10:04:36;;;;;;;19.27;15.87;;;;;;;;;;5008813;28;20203;-51
2022/05/06 10:07:05;;;;;;;18.87;14.83;;;;;;;;;;4994580;28;20194;-52
2022/05/06 10:09:51;;;;;;;16.73;13.83;;;;;;;;;;5026280;28;20220;-53
2022/05/06 10:12:24;;;;;;;19.43;14.77;;;;;;;;;;5005836;28;20546;-53
2022/05/06 10:14:51;;;;;;;15.60;14.00;;;;;;;;;;5000905;28;20220;-53
2022/05/06 10:17:36;;;;;;;16.90;13.90;;;;;;;;;;5001617;28;20190;-53
2022/05/06 10:20:02;;;;;;;14.67;13.10;;;;;;;;;;4994161;28;20217;-53
2022/05/06 10:22:59;;;;;;;18.27;13.47;;;;;;;;;;5020050;28;20250;-53
2022/05/06 10:25:55;;;;;;;18.53;12.63;;;;;;;;;;5020100;28;20182;-53
2022/05/06 10:34:15;;;;;;;13.80;11.83;;;;;;;;;;5016539;28;20577;-53
2022/05/06 10:36:54;;;;;;;12.37;11.17;;;;;;;;;;5013111;28;20913;-53
2022/05/06 10:39:35;;;;;;;12.90;11.60;;;;;;;;;;4983112;28;20182;-53
2022/05/06 10:42:02;;;;;;;14.07;11.47;;;;;;;;;;4978794;28;20195;-53
2022/05/06 10:44:34;;;;;;;12.83;11.63;;;;;;;;;;4978654;28;20183;-53
2022/05/06 10:47:00;;;;;;;16.33;11.13;;;;;;;;;;4999347;28;20323;-53
2022/05/06 10:49:35;;;;;;;14.80;12.33;;;;;;;;;;4999976;28;20189;-53
2022/05/06 10:52:20;;;;;;;13.60;12.20;;;;;;;;;;4999654;28;20225;-53
2022/05/06 10:55:00;;;;;;;13.37;11.90;;;;;;;;;;5016671;28;20177;-53
2022/05/06 10:57:31;;;;;;;13.60;12.20;;;;;;;;;;5016480;28;20608;-53
2022/05/06 11:00:02;;;;;;;13.40;12.10;;;;;;;;;;4998858;28;20203;-53
2022/05/06 11:02:30;;;;;;;14.27;12.87;;;;;;;;;;4998222;28;20191;-53
2022/05/06 11:05:24;;;;;;;14.37;12.97;;;;;;;;;;5018191;28;20186;-53
2022/05/06 11:07:50;;;;;;;13.47;11.70;;;;;;;;;;5014845;28;20584;-53
2022/05/06 11:10:18;;;;;;;13.23;11.20;;;;;;;;;;4996795;28;20236;-53
2022/05/06 11:12:46;;;;;;;12.47;11.27;;;;;;;;;;4998893;28;20186;-54
2022/05/06 11:15:15;;;;;;;13.77;12.37;;;;;;;;;;5000907;28;20188;-53
2022/05/06 11:17:49;;;;;;;13.47;12.17;;;;;;;;;;4999643;28;20305;-53
2022/05/06 11:20:23;;;;;;;15.13;12.37;;;;;;;;;;4996947;28;20235;-53
2022/05/06 11:22:57;;;;;;;13.80;12.30;;;;;;;;;;5015849;28;20185;-53
2022/05/06 11:25:26;;;;;;;13.33;11.93;;;;;;;;;;4998518;28;20181;-56
2022/05/06 11:27:54;;;;;;;15.67;14.00;;;;;;;;;;5001281;28;20178;-56
2022/05/06 11:30:21;;;;;;;15.70;13.83;;;;;;;;;;4998517;28;20282;-55
2022/05/06 11:33:07;;;;;;;14.47;12.97;;;;;;;;;;4997896;28;20213;-55
2022/05/06 11:35:36;;;;;;;14.47;12.43;;;;;;;;;;5011792;28;20607;-55
2022/05/06 11:38:03;;;;;;;13.13;11.73;;;;;;;;;;5012649;28;20178;-56
2022/05/06 11:40:39;;;;;;;14.47;12.80;;;;;;;;;;4998822;28;20256;-55
2022/05/06 11:43:21;;;;;;;14.60;13.07;;;;;;;;;;5009968;28;20259;-55
2022/05/06 11:48:33;;;;;;;14.43;12.87;;;;;;;;;;5016682;28;20281;-55
2022/05/06 11:51:03;;;;;;;13.73;12.43;;;;;;;;;;5019343;28;20212;-55
2022/05/06 11:53:29;;;;;;;11.67;10.57;;;;;;;;;;5000892;28;20185;-54
2022/05/06 11:55:56;;;;;;;12.33;11.03;;;;;;;;;;5000821;28;20190;-56
2022/05/06 11:58:23;;;;;;;14.23;12.87;;;;;;;;;;5019337;28;20214;-56
2022/05/06 12:00:52;;;;;;;13.93;12.47;;;;;;;;;;5001056;28;20185;-55
2022/05/06 12:03:19;;;;;;;17.53;16.13;;;;;;;;;;4998718;28;20186;-55
2022/05/06 12:05:58;;;;;;;14.63;13.27;;;;;;;;;;4998222;28;20682;-53
2022/05/06 12:08:29;;;;;;;16.97;15.27;;;;;;;;;;4998608;28;20644;-53
2022/05/06 12:11:04;;;;;;;18.57;16.77;;;;;;;;;;4998922;28;20615;-51
2022/05/06 12:13:32;;;;;;;19.53;17.53;;;;;;;;;;4999647;28;20783;-52
2022/05/06 12:16:04;;;;;;;18.63;16.73;;;;;;;;;;4998267;28;20727;-52
2022/05/06 12:18:31;;;;;;;18.40;15.97;;;;;;;;;;4997251;28;20190;-52
2022/05/06 12:20:58;;;;;;;18.03;16.23;;;;;;;;;;5020629;28;20604;-53
2022/05/06 12:23:31;;;;;;;23.53;21.00;;;;;;;;;;5000301;28;20778;-53
2022/05/06 12:25:58;;;;;;;24.27;19.20;;;;;;;;;;5021688;28;20190;-52
2022/05/06 12:28:27;;;;;;;22.70;20.30;;;;;;;;;;5001526;28;20290;-51
2022/05/06 12:30:57;;;;;;;22.23;19.73;;;;;;;;;;5001058;28;20212;-52
2022/05/06 12:33:35;;;;;;;26.67;21.27;;;;;;;;;;5000677;28;20292;-52
2022/05/06 12:36:05;;;;;;;21.03;19.00;;;;;;;;;;5018387;28;20244;-52
2022/05/06 12:38:37;;;;;;;19.63;17.57;;;;;;;;;;5020872;28;20988;-52
2022/05/06 12:41:23;;;;;;;22.20;19.30;;;;;;;;;;5001955;28;20828;-52
2022/05/06 12:43:50;;;;;;;18.87;16.73;;;;;;;;;;4999806;28;20185;-51
2022/05/06 12:46:29;;;;;;;20.47;18.27;;;;;;;;;;5021660;28;20187;-52
2022/05/06 12:51:42;;;;;;;20.97;18.87;;;;;;;;;;5019620;28;20213;-52
2022/05/06 12:54:11;;;;;;;21.10;19.10;;;;;;;;;;5019149;28;20647;-52
2022/05/06 12:56:38;;;;;;;17.20;15.47;;;;;;;;;;5002280;28;20191;-52
2022/05/06 12:59:05;;;;;;;21.50;19.30;;;;;;;;;;5018484;28;21100;-60
2022/05/06 13:01:32;;;;;;;20.27;18.17;;;;;;;;;;5022213;28;20180;-52
2022/05/06 13:03:58;;;;;;;21.87;17.40;;;;;;;;;;5000144;28;20182;-52
2022/05/06 13:06:25;;;;;;;20.50;17.93;;;;;;;;;;5001375;28;20206;-53
2022/05/06 13:08:51;;;;;;;19.50;16.37;;;;;;;;;;5001010;28;20580;-52
2022/05/06 13:11:17;;;;;;;18.90;16.90;;;;;;;;;;5021503;28;20961;-53
2022/05/06 13:13:44;;;;;;;19.53;17.47;;;;;;;;;;5000600;28;20381;-53
2022/05/06 13:16:12;;;;;;;18.13;16.37;;;;;;;;;;5019166;28;20202;-52
2022/05/06 13:18:39;;;;;;;18.97;16.07;;;;;;;;;;4993636;28;20228;-53
2022/05/06 13:21:09;;;;;;;18.13;16.23;;;;;;;;;;5019885;28;20308;-50
2022/05/06 13:23:37;;;;;;;19.30;17.30;;;;;;;;;;5019286;28;20194;-50
2022/05/06 13:26:03;;;;;;;19.80;16.03;;;;;;;;;;5017771;28;20202;-51
2022/05/06 13:28:29;;;;;;;18.40;16.50;;;;;;;;;;5013970;28;20187;-51
2022/05/06 13:30:55;;;;;;;20.77;17.00;;;;;;;;;;5014844;28;20658;-51
2022/05/06 13:33:22;;;;;;;19.70;17.80;;;;;;;;;;5006093;28;20199;-52
2022/05/06 13:35:48;;;;;;;17.13;15.20;;;;;;;;;;5015246;28;20218;-51
2022/05/06 13:38:14;;;;;;;18.53;14.87;;;;;;;;;;5019229;28;20301;-52
2022/05/06 13:40:40;;;;;;;15.60;14.20;;;;;;;;;;5022064;28;20524;-52
2022/05/06 13:43:06;;;;;;;16.93;13.53;;;;;;;;;;5001270;28;20179;-53
2022/05/06 13:45:33;;;;;;;15.47;13.93;;;;;;;;;;5000275;28;20208;-53
2022/05/06 13:47:59;;;;;;;14.90;13.23;;;;;;;;;;4975880;28;20189;-53
2022/05/06 13:50:26;;;;;;;16.57;13.97;;;;;;;;;;5003779;28;20221;-52
2022/05/06 13:52:52;;;;;;;14.47;12.97;;;;;;;;;;5000181;28;20624;-52
2022/05/06 13:55:18;;;;;;;15.53;13.40;;;;;;;;;;5014258;28;20189;-53
2022/05/06 14:00:32;;;;;;;16.57;14.67;;;;;;;;;;5020411;28;20217;-52
2022/05/06 14:02:59;;;;;;;14.23;12.83;;;;;;;;;;5012271;28;20220;-52
2022/05/06 14:05:26;;;;;;;17.73;15.93;;;;;;;;;;5016500;28;20179;-52
2022/05/06 14:07:52;;;;;;;16.30;14.20;;;;;;;;;;5000983;28;20182;-52
2022/05/06 14:10:18;;;;;;;16.90;15.10;;;;;;;;;;5018685;28;20191;-52
2022/05/06 14:12:45;;;;;;;16.87;15.23;;;;;;;;;;5001008;28;20220;-52
2022/05/06 14:15:11;;;;;;;17.57;15.97;;;;;;;;;;4999810;28;20209;-52
2022/05/06 14:17:37;;;;;;;16.33;14.80;;;;;;;;;;5019383;28;20187;-53
2022/05/06 14:20:03;;;;;;;15.10;13.60;;;;;;;;;;5017881;28;20542;-52
2022/05/06 14:22:29;;;;;;;15.67;14.17;;;;;;;;;;5019261;28;20597;-52
2022/05/06 14:24:55;;;;;;;15.73;14.23;;;;;;;;;;5002974;28;20601;-52
2022/05/06 14:27:23;;;;;;;15.70;14.20;;;;;;;;;;5019119;28;20203;-52
2022/05/06 14:29:49;;;;;;;14.37;13.07;;;;;;;;;;5020245;28;20817;-53
2022/05/06 14:32:15;;;;;;;13.80;12.40;;;;;;;;;;5017439;28;20293;-52
2022/05/06 14:34:42;;;;;;;14.90;13.50;;;;;;;;;;5022652;28;20321;-52
2022/05/06 14:37:08;;;;;;;16.03;14.53;;;;;;;;;;5024926;28;20175;-52
2022/05/06 14:39:34;;;;;;;17.80;15.20;;;;;;;;;;5007277;28;20277;-52
2022/05/06 14:42:00;;;;;;;15.10;13.60;;;;;;;;;;5024728;28;20272;-52
2022/05/06 14:44:27;;;;;;;14.10;12.63;;;;;;;;;;5021716;28;20204;-52
2022/05/06 14:46:53;;;;;;;13.03;11.77;;;;;;;;;;5023710;28;20513;-52
2022/05/06 14:49:19;;;;;;;13.90;12.70;;;;;;;;;;5025240;28;20730;-52
2022/05/06 14:51:46;;;;;;;14.80;13.37;;;;;;;;;;5023331;28;20214;-52
2022/05/06 14:54:12;;;;;;;14.20;12.80;;;;;;;;;;5004631;28;20281;-52
2022/05/06 14:56:38;;;;;;;15.27;13.70;;;;;;;;;;5004444;28;20183;-52
2022/05/06 14:59:05;;;;;;;13.93;11.43;;;;;;;;;;5021346;28;20188;-52
2022/05/06 15:01:32;;;;;;;12.73;11.50;;;;;;;;;;5002442;28;20190;-51
2022/05/06 15:03:58;;;;;;;13.93;10.70;;;;;;;;;;5005708;28;20280;-52
2022/05/06 15:06:25;;;;;;;11.60;10.27;;;;;;;;;;5007772;28;20200;-52
2022/05/06 15:08:51;;;;;;;12.27;11.10;;;;;;;;;;5022129;28;20186;-52
2022/05/06 15:11:18;;;;;;;12.53;11.33;;;;;;;;;;5025806;28;20739;-52
2022/05/06 15:13:44;;;;;;;11.60;10.57;;;;;;;;;;5023633;28;20188;-52
2022/05/06 15:16:10;;;;;;;12.93;11.83;;;;;;;;;;5025640;28;20668;-52
2022/05/06 15:21:21;;;;;;;10.80;9.73;;;;;;;;;;5025275;28;20200;-52
2022/05/06 15:23:48;;;;;;;10.93;9.90;;;;;;;;;;5000397;28;20185;-52
2022/05/06 15:26:15;;;;;;;11.43;9.47;;;;;;;;;;5005726;28;20194;-52
2022/05/06 15:28:41;;;;;;;11.33;10.23;;;;;;;;;;5031085;28;20633;-52